Huvudsida
METAR-TAF:

METAR-TAF

Flygplatser :

Pohnpei International Airport

Pohnpei, Mikronesien

latitud: 06-59N, longitud: 158-12E, höjd: 2 m

Aktuellt väderrapport

Denna rapport gjordes för 15 timmar och 52 minuter sedan, klockan 04:55 UTC
Vind 7 kt från väst
Temperatur 31°C
Fuktighet 75%
Tryck 1004 hPa
Sikt: 24.1 km
Spridda moln på en höjd av 1800 ft, Högtornande cumulus.
Spridda moln på en höjd av 13000 ft
Mulet på en höjd av 30000 ft

METAR: PTPN 120455Z 28007KT 15SM SCT018TCU SCT130 OVC300 31/26 A2965 RMK TCU S LAST

Tid: 07:47 (20:47 UTC)

Väderprognos

Denna rapport gjordes för 21 timmar och 27 minuter sedan, klockan 23:20 UTC
Prognos gäller från 12 kl. 00 UTC till 12 kl. 24 UTC
Vind 8 kt från nord/nordväst
Sikt: 10 km
Spridda moln på en höjd av 1800 ft

TAF: PTPN 112320Z 1200/1224 34008KT P6SM SCT018

Aktuella väderrapporter och prognoser från 4000 flygplatser (METAR- och TAF-rapporter).

De tillgängliga stationerna syns som gula och röda prickar på kartan.

För musen över prickarna för att se namnen på stationerna.

Klicka sedan för att få väderrapporter och prognoser.

För att ändra kartan: Klicka på de gröna knapparna med ett svart kors på för att zooma in; den gröna knappen med ett streck på för att zooma ut; eller på de gröna pilarna för angränsande kartor.


METAR-TAF: